Lavista, Nebraska
Current Conditions -  °F | °C
As of 11:35 AM on Monday 22 Dec 2014 (Local Time) from KMLE Reporting Station
Light Rain Light Rain  
Wind Chill: 39°   Ceiling: 500
Heat Index: 43°   Visibility: 2.5mi
Dew Point: 41°   Wind: 6mph
Humidity: 93%   Direction: 150°SSE
Pressure: 29.46"   Gusts: NA
Location:  41.166°N, 96.0444°W
Report Text: KMLE 221735Z AUTO 15005KT 2 1/2SM -RA OVC005 06/05 A2946 RMK AO2 P0001 T00600050
Loading
Personal Weather Stations






























Interactive Weather Map New forecast layout! Learn more

10-Day Weather Forecast

Advertisements
Track Severe Weather on mobile